Deale, Maryland
Current Conditions -  °F | °C
As of 7:54 PM on Sunday 21 Dec 2014 (Local Time) from KNAK Reporting Station
Clear Clear  
Wind Chill: 30°   Ceiling: Unl
Heat Index: 36°   Visibility: 7mi
Dew Point: 26°   Wind: 7mph
Humidity: 67%   Direction: 50°NE
Pressure: 30.34"   Gusts: NA
Location:  38.78°N, 76.55°W
Report Text: KNAK 220054Z AUTO 05006KT 7SM CLR 02/M03 A3034 RMK AO2 SLP275 T00221033 $
Loading
Personal Weather Stations






























Interactive Weather Map New forecast layout! Learn more

10-Day Weather Forecast

Advertisements
Track Severe Weather on mobile